Time;durP1;ratioP1;P1;durP2;ratioP2;P2;SDS_P1;SDS_P2;PMS_P1;PMS_P2;Temp;Humidity;BMP_temperature;BMP_pressure;BME280_temperature;BME280_humidity;BME280_pressure;Samples;Min_cycle;Max_cycle;Signal;HPM_P1;HPM_P2
2022/04/13 00:00:47;;;;;;;2.42;1.30;;;;;;;14.08;52.26;100988.66;4955314;28;20018;-74
2022/04/13 00:03:12;;;;;;;2.92;1.60;;;;;;;14.09;52.29;101000.78;4954618;28;20027;-73
2022/04/13 00:05:37;;;;;;;2.75;1.48;;;;;;;14.09;52.17;100995.59;4954653;28;20088;-74
2022/04/13 00:08:06;;;;;;;2.28;1.20;;;;;;;14.08;52.37;101001.63;4952882;28;20027;-73
2022/04/13 00:10:36;;;;;;;2.78;1.50;;;;;;;14.09;52.35;101003.38;4956033;28;20026;-74
2022/04/13 00:13:02;;;;;;;2.63;1.48;;;;;;;14.07;52.23;100997.31;4954933;28;20019;-72
2022/04/13 00:15:27;;;;;;;2.28;1.40;;;;;;;14.08;52.40;100995.56;4954000;28;20049;-73
2022/04/13 00:17:52;;;;;;;2.00;1.40;;;;;;;14.09;52.44;100992.16;4954930;28;20101;-74
2022/04/13 00:20:18;;;;;;;2.45;1.52;;;;;;;14.09;52.27;100999.91;4954483;28;20023;-74
2022/04/13 00:22:43;;;;;;;2.15;1.33;;;;;;;14.09;52.36;101008.56;4955879;28;20405;-74
2022/04/13 00:25:09;;;;;;;3.03;1.42;;;;;;;14.06;52.23;100995.56;4937396;28;20026;-73
2022/04/13 00:27:34;;;;;;;2.22;1.30;;;;;;;14.08;52.39;101006.81;4952546;28;20079;-74
2022/04/13 00:30:00;;;;;;;3.30;1.58;;;;;;;14.08;52.40;101009.38;4953507;28;20113;-73
2022/04/13 00:32:25;;;;;;;2.72;1.75;;;;;;;14.09;52.23;101002.50;4954273;28;20050;-73
2022/04/13 00:34:51;;;;;;;2.38;1.40;;;;;;;14.09;52.38;101013.75;4951206;28;20104;-73
2022/04/13 00:37:16;;;;;;;2.60;1.30;;;;;;;14.07;52.29;101010.25;4954099;28;20062;-73
2022/04/13 00:39:43;;;;;;;2.65;1.30;;;;;;;14.08;52.24;101005.94;4953856;28;20015;-74
2022/04/13 00:42:09;;;;;;;3.30;1.58;;;;;;;14.09;52.22;101015.47;4922902;28;21948;-74
2022/04/13 00:44:35;;;;;;;2.28;1.15;;;;;;;14.08;52.28;101022.34;4954750;28;20436;-74
2022/04/13 00:47:05;;;;;;;3.17;1.42;;;;;;;14.08;52.21;101017.16;4954759;28;20078;-74
2022/04/13 00:49:31;;;;;;;2.92;1.42;;;;;;;14.08;52.34;101022.34;4954654;28;20011;-74
2022/04/13 00:52:00;;;;;;;3.28;1.55;;;;;;;14.08;52.31;101024.09;4955417;28;20037;-74
2022/04/13 00:54:29;;;;;;;2.80;1.63;;;;;;;14.08;52.30;101032.72;4953798;28;20031;-73
2022/04/13 00:56:56;;;;;;;2.75;1.40;;;;;;;14.08;52.36;101031.84;4953381;28;20039;-73
2022/04/13 00:59:23;;;;;;;3.60;1.52;;;;;;;14.09;52.35;101036.19;4954248;28;20035;-73
2022/04/13 01:01:49;;;;;;;2.30;1.50;;;;;;;14.08;52.32;101042.22;4955314;28;20831;-72
2022/04/13 01:04:16;;;;;;;2.50;1.40;;;;;;;14.08;52.38;101043.09;4953753;28;20025;-72
2022/04/13 01:06:43;;;;;;;4.18;1.60;;;;;;;14.09;52.22;101051.75;4954521;28;20014;-72
2022/04/13 01:09:10;;;;;;;2.65;1.42;;;;;;;14.08;52.28;101052.59;4953380;28;20108;-74
2022/04/13 01:11:35;;;;;;;1.88;1.20;;;;;;;14.08;52.27;101056.03;4954413;28;20447;-73
2022/04/13 01:14:01;;;;;;;4.00;1.60;;;;;;;14.09;52.19;101060.38;4954448;28;20057;-73
2022/04/13 01:16:26;;;;;;;2.05;1.20;;;;;;;14.09;52.27;101067.31;4953645;28;20073;-73
2022/04/13 01:18:54;;;;;;;3.38;1.50;;;;;;;14.06;52.34;101060.34;4953476;28;20344;-74
2022/04/13 01:21:45;;;;;;;2.83;1.45;;;;;;;14.11;52.33;101069.06;4954207;28;20102;-73
2022/04/13 01:24:12;;;;;;;2.60;1.50;;;;;;;14.08;52.16;101076.78;4952058;28;20014;-74
2022/04/13 01:26:38;;;;;;;3.83;1.70;;;;;;;14.09;52.27;101080.25;4953030;28;20409;-74
2022/04/13 01:29:05;;;;;;;2.55;1.40;;;;;;;14.07;52.38;101080.25;4954527;28;20122;-74
2022/04/13 01:31:31;;;;;;;3.85;1.58;;;;;;;14.07;52.37;101082.84;4952633;28;20038;-74
2022/04/13 01:33:57;;;;;;;3.22;1.67;;;;;;;14.08;52.16;101084.56;4936379;28;20081;-73
2022/04/13 01:36:23;;;;;;;2.85;1.40;;;;;;;14.07;52.25;101088.00;4952074;28;20031;-74
2022/04/13 01:38:48;;;;;;;3.28;1.65;;;;;;;14.08;52.27;101097.50;4950430;28;20027;-74
2022/04/13 01:41:13;;;;;;;3.47;1.55;;;;;;;14.07;52.25;101097.50;4934386;28;20035;-73
2022/04/13 01:43:39;;;;;;;3.58;1.60;;;;;;;14.08;52.34;101094.06;4951414;28;20453;-74
2022/04/13 01:46:04;;;;;;;4.55;1.70;;;;;;;14.08;52.31;101100.09;4952877;28;20015;-75
2022/04/13 01:48:31;;;;;;;4.65;1.55;;;;;;;14.08;52.38;101104.44;4951552;28;20122;-73
2022/04/13 01:50:58;;;;;;;3.28;1.60;;;;;;;14.08;52.56;101115.66;4952155;28;20452;-74
2022/04/13 01:53:24;;;;;;;3.17;1.73;;;;;;;14.08;52.44;101113.06;4949245;28;20027;-72
2022/04/13 01:55:50;;;;;;;4.88;1.60;;;;;;;14.08;52.38;101112.19;4950212;28;20376;-73
2022/04/13 01:58:16;;;;;;;3.72;1.83;;;;;;;14.06;52.31;101109.59;4952001;28;20023;-74
2022/04/13 02:00:41;;;;;;;3.67;1.80;;;;;;;14.08;52.48;101109.59;4953907;28;20031;-74
2022/04/13 02:03:07;;;;;;;2.95;1.70;;;;;;;14.07;52.53;101111.34;4953755;28;20022;-74
2022/04/13 02:05:32;;;;;;;4.03;1.88;;;;;;;14.08;52.43;101105.28;4953825;28;20084;-74
2022/04/13 02:07:57;;;;;;;3.50;1.70;;;;;;;14.07;52.42;101111.34;4951822;28;20464;-74
2022/04/13 02:10:23;;;;;;;3.20;1.90;;;;;;;14.06;52.28;101114.78;4953030;28;20335;-73
2022/04/13 02:12:48;;;;;;;3.72;1.60;;;;;;;14.08;52.38;101119.97;4952353;28;20027;-73
2022/04/13 02:15:14;;;;;;;3.05;1.67;;;;;;;14.06;52.45;101117.34;4952976;28;20034;-74
2022/04/13 02:17:39;;;;;;;4.55;2.00;;;;;;;14.07;52.32;101124.28;4953939;28;20023;-72
2022/04/13 02:20:06;;;;;;;3.25;1.80;;;;;;;14.08;52.46;101120.84;4953055;28;20030;-73
2022/04/13 02:22:31;;;;;;;3.10;1.73;;;;;;;14.06;52.40;101132.91;4953426;28;20023;-74
2022/04/13 02:25:03;;;;;;;3.92;1.90;;;;;;;14.09;52.46;101137.28;4951271;28;20046;-73
2022/04/13 02:27:29;;;;;;;3.40;1.65;;;;;;;14.07;52.45;101137.25;4953145;28;20015;-73
2022/04/13 02:29:54;;;;;;;4.13;1.80;;;;;;;14.06;52.46;101129.44;4951270;28;20453;-74
2022/04/13 02:32:19;;;;;;;4.38;1.90;;;;;;;14.06;52.39;101127.72;4952546;28;20081;-73
2022/04/13 02:34:48;;;;;;;2.90;1.92;;;;;;;14.06;52.41;101140.69;4952248;28;20430;-74
2022/04/13 02:37:14;;;;;;;3.55;1.80;;;;;;;14.06;52.47;101137.19;4952330;28;20027;-73
2022/04/13 02:39:40;;;;;;;3.50;1.80;;;;;;;14.03;52.47;101127.66;4950848;28;20110;-73
2022/04/13 02:42:05;;;;;;;5.00;2.17;;;;;;;14.05;52.40;101141.53;4953161;28;20512;-74
2022/04/13 02:44:31;;;;;;;4.38;2.05;;;;;;;14.06;52.57;101148.47;4951648;28;20419;-73
2022/04/13 02:46:57;;;;;;;4.97;1.90;;;;;;;14.06;52.48;101148.47;4950021;28;20516;-73
2022/04/13 02:49:22;;;;;;;3.28;1.80;;;;;;;14.05;52.44;101144.13;4946638;28;20027;-73
2022/04/13 02:51:47;;;;;;;4.20;1.80;;;;;;;14.08;52.55;101151.06;4937436;28;20089;-74
2022/04/13 02:54:13;;;;;;;3.45;1.95;;;;;;;14.08;52.53;101157.13;4949428;28;20055;-73
2022/04/13 02:56:38;;;;;;;3.55;1.73;;;;;;;14.08;52.55;101157.13;4926625;28;20118;-73
2022/04/13 02:59:03;;;;;;;3.03;1.80;;;;;;;14.08;52.46;101162.31;4948712;28;20027;-73
2022/04/13 03:01:29;;;;;;;3.75;2.00;;;;;;;14.06;52.56;101151.06;4942648;28;20015;-74
2022/04/13 03:03:55;;;;;;;5.60;2.20;;;;;;;14.07;52.52;101154.50;4946296;28;20281;-73
2022/04/13 03:06:21;;;;;;;2.88;1.85;;;;;;;14.06;52.60;101157.94;4950362;28;20026;-74
2022/04/13 03:08:46;;;;;;;3.45;1.85;;;;;;;14.07;52.53;101160.59;4951304;28;20014;-74
2022/04/13 03:11:12;;;;;;;5.32;2.10;;;;;;;14.08;52.53;101156.25;4952797;28;20089;-73
2022/04/13 03:13:37;;;;;;;3.97;1.90;;;;;;;14.06;52.65;101158.81;4953807;28;20019;-74
2022/04/13 03:16:03;;;;;;;3.30;1.98;;;;;;;14.08;52.61;101161.44;4938163;28;20046;-74
2022/04/13 03:18:28;;;;;;;4.65;2.28;;;;;;;14.06;52.56;101153.66;4952955;28;20085;-73
2022/04/13 03:20:54;;;;;;;4.30;1.98;;;;;;;14.07;52.60;101159.69;4955389;28;20260;-74
2022/04/13 03:23:19;;;;;;;5.65;2.20;;;;;;;14.07;52.52;101154.50;4955681;28;20070;-73
2022/04/13 03:25:44;;;;;;;4.63;2.00;;;;;;;14.08;52.54;101151.94;4956077;28;20353;-72
2022/04/13 03:28:10;;;;;;;4.55;2.05;;;;;;;14.06;52.55;101153.66;4955492;28;20026;-72
2022/04/13 03:30:35;;;;;;;4.95;2.20;;;;;;;14.05;52.53;101154.47;4956528;28;20058;-74
2022/04/13 03:33:01;;;;;;;4.00;2.00;;;;;;;14.08;52.59;101161.44;4938492;28;20065;-73
2022/04/13 03:35:26;;;;;;;3.40;2.10;;;;;;;14.08;52.60;101156.25;4955099;28;20046;-73
2022/04/13 03:37:51;;;;;;;5.53;2.40;;;;;;;14.08;52.51;101151.06;4954271;28;20029;-72
2022/04/13 03:40:17;;;;;;;5.50;2.08;;;;;;;14.06;52.38;101161.41;4954308;28;20047;-73
2022/04/13 03:42:42;;;;;;;4.97;2.58;;;;;;;14.09;52.60;101158.00;4955399;28;20023;-73
2022/04/13 03:45:13;;;;;;;4.13;1.77;;;;;;;14.06;52.72;101164.00;4954502;28;20023;-73
2022/04/13 03:47:40;;;;;;;4.07;2.10;;;;;;;14.05;52.68;101151.88;4955550;28;20015;-73
2022/04/13 03:50:07;;;;;;;5.00;2.15;;;;;;;14.08;52.59;101167.50;4939097;28;20031;-73
2022/04/13 03:52:35;;;;;;;4.47;2.22;;;;;;;14.07;52.56;101165.75;4955731;28;20035;-73
2022/04/13 03:55:04;;;;;;;3.90;2.00;;;;;;;14.05;52.75;101172.63;4955383;28;20031;-73
2022/04/13 03:57:29;;;;;;;5.30;2.20;;;;;;;14.08;52.74;101174.41;4955522;28;20102;-73
2022/04/13 03:59:55;;;;;;;3.92;2.03;;;;;;;14.06;52.62;101174.38;4954051;28;20401;-74
2022/04/13 04:02:21;;;;;;;5.82;2.30;;;;;;;14.06;52.48;101174.38;4954957;28;20023;-72
2022/04/13 04:04:46;;;;;;;4.18;2.30;;;;;;;14.06;52.17;101171.78;4953413;28;20053;-74
2022/04/13 04:07:12;;;;;;;3.58;1.98;;;;;;;14.07;52.68;101181.31;4952358;28;20373;-73
2022/04/13 04:09:37;;;;;;;5.63;2.30;;;;;;;14.07;52.55;101183.91;4954153;28;20410;-74
2022/04/13 04:12:03;;;;;;;5.20;2.22;;;;;;;14.08;52.67;101179.59;4953768;28;20030;-74
2022/04/13 04:14:28;;;;;;;5.13;2.15;;;;;;;14.08;52.80;101182.19;4953294;28;20030;-73
2022/04/13 04:16:54;;;;;;;4.72;2.30;;;;;;;14.06;52.67;101189.94;4950717;28;20066;-74
2022/04/13 04:19:19;;;;;;;4.65;2.20;;;;;;;14.07;52.54;101198.56;4936840;28;20023;-73
2022/04/13 04:21:44;;;;;;;3.33;1.90;;;;;;;14.05;52.58;101198.53;4952212;28;20433;-74
2022/04/13 04:24:10;;;;;;;3.10;1.83;;;;;;;14.06;52.62;101200.28;4952168;28;20401;-72
2022/04/13 04:26:35;;;;;;;3.90;2.20;;;;;;;14.06;52.69;101205.47;4956061;28;20031;-74
2022/04/13 04:29:00;;;;;;;5.00;2.05;;;;;;;14.06;52.55;101195.13;4954548;28;20459;-73
2022/04/13 04:34:10;;;;;;;4.40;2.10;;;;;;;14.07;52.64;101206.34;4953937;28;20093;-73
2022/04/13 04:36:35;;;;;;;5.38;2.35;;;;;;;14.06;52.62;101202.88;4938805;28;20031;-74
2022/04/13 04:39:02;;;;;;;4.50;2.47;;;;;;;14.07;52.64;101219.28;4954343;28;20030;-74
2022/04/13 04:41:27;;;;;;;6.13;2.60;;;;;;;14.08;52.71;101213.28;4954611;28;20509;-72
2022/04/13 04:43:52;;;;;;;5.22;2.55;;;;;;;14.07;52.71;101212.41;4953792;28;20034;-74
2022/04/13 04:46:17;;;;;;;5.32;2.33;;;;;;;14.07;52.72;101227.06;4953937;28;20018;-72
2022/04/13 04:48:43;;;;;;;5.60;2.33;;;;;;;14.06;52.73;101236.56;4936734;28;20085;-74
2022/04/13 04:51:09;;;;;;;4.72;2.33;;;;;;;14.05;52.72;101226.19;4953698;28;20100;-73
2022/04/13 04:53:35;;;;;;;6.57;2.40;;;;;;;14.05;52.78;101229.63;4953352;28;20023;-74
2022/04/13 04:56:00;;;;;;;5.20;2.17;;;;;;;14.06;52.73;101239.16;4952888;28;20031;-74
2022/04/13 04:58:26;;;;;;;6.18;2.58;;;;;;;14.05;52.73;101242.59;4953679;28;20031;-74
2022/04/13 05:00:52;;;;;;;4.60;2.20;;;;;;;14.05;52.83;101249.50;4934945;28;20054;-74
2022/04/13 05:03:17;;;;;;;4.40;2.42;;;;;;;14.05;52.80;101247.78;4936193;28;20031;-73
2022/04/13 05:05:43;;;;;;;4.03;2.30;;;;;;;14.05;52.69;101254.69;4952101;28;20015;-73
2022/04/13 05:08:08;;;;;;;6.32;2.47;;;;;;;14.05;52.68;101252.97;4935679;28;20023;-74
2022/04/13 05:10:34;;;;;;;5.72;2.90;;;;;;;14.04;52.67;101253.78;4953459;28;20034;-74
2022/04/13 05:12:59;;;;;;;3.78;2.25;;;;;;;14.05;52.65;101257.28;4950790;28;20015;-74
2022/04/13 05:15:25;;;;;;;4.95;2.80;;;;;;;14.04;52.63;101258.97;4952308;28;20708;-74
2022/04/13 05:17:50;;;;;;;5.32;2.70;;;;;;;14.05;52.71;101259.88;4952785;28;20432;-75
2022/04/13 05:20:15;;;;;;;5.22;3.08;;;;;;;14.04;52.86;101277.13;4951166;28;20030;-74
2022/04/13 05:22:41;;;;;;;4.88;2.92;;;;;;;14.06;52.94;101272.88;4936968;28;20085;-74
2022/04/13 05:25:12;;;;;;;5.88;3.70;;;;;;;14.06;53.10;101274.56;4951829;28;20023;-74
2022/04/13 05:27:38;;;;;;;5.47;3.35;;;;;;;14.05;53.03;101278.88;4953291;28;20136;-74
2022/04/13 05:30:05;;;;;;;8.20;4.20;;;;;;;14.05;53.06;101278.88;4950797;28;20473;-73
2022/04/13 05:32:31;;;;;;;5.25;3.20;;;;;;;14.04;53.07;101278.84;4934900;28;20030;-73
2022/04/13 05:35:00;;;;;;;7.45;3.30;;;;;;;14.05;52.94;101280.63;4953303;28;20027;-74
2022/04/13 05:37:26;;;;;;;6.32;3.40;;;;;;;14.05;52.93;101290.97;4952852;28;20048;-74
2022/04/13 05:39:52;;;;;;;6.70;3.45;;;;;;;14.05;53.17;101289.25;4952567;28;20436;-73
2022/04/13 05:42:24;;;;;;;8.10;4.03;;;;;;;14.06;53.02;101303.97;4953734;28;20037;-74
2022/04/13 05:44:49;;;;;;;6.70;3.65;;;;;;;14.04;52.98;101300.44;4951730;28;20049;-74
2022/04/13 05:47:15;;;;;;;8.30;3.83;;;;;;;14.05;53.00;101302.22;4951656;28;20022;-74
2022/04/13 05:49:40;;;;;;;7.72;5.07;;;;;;;14.05;53.18;101309.97;4935573;28;20033;-74
2022/04/13 05:52:06;;;;;;;5.43;3.10;;;;;;;14.05;52.85;101307.38;4954368;28;20052;-74
2022/04/13 05:54:31;;;;;;;10.23;4.10;;;;;;;14.06;53.21;101303.06;4936875;28;20042;-73
2022/04/13 05:56:57;;;;;;;10.20;4.47;;;;;;;14.06;53.66;101303.06;4953427;28;20332;-73
2022/04/13 05:59:22;;;;;;;9.00;3.78;;;;;;;14.05;53.63;101309.97;4952447;28;20459;-73
2022/04/13 06:01:48;;;;;;;8.15;4.00;;;;;;;14.07;54.03;101316.09;4952514;28;20528;-74
2022/04/13 06:04:13;;;;;;;9.73;4.68;;;;;;;14.08;53.81;101328.19;4950580;28;20572;-74
2022/04/13 06:06:38;;;;;;;10.15;4.50;;;;;;;14.08;54.16;101319.53;4953665;28;20023;-74
2022/04/13 06:09:04;;;;;;;10.80;4.55;;;;;;;14.08;54.69;101328.19;4934942;28;20023;-74
2022/04/13 06:11:29;;;;;;;9.52;4.78;;;;;;;14.09;54.66;101327.34;4952830;28;20031;-74
2022/04/13 06:13:54;;;;;;;15.13;5.40;;;;;;;14.08;54.71;101328.19;4952914;28;20026;-74
2022/04/13 06:16:20;;;;;;;10.35;4.53;;;;;;;14.09;54.78;101322.16;4952450;28;20464;-73
2022/04/13 06:18:45;;;;;;;14.43;5.10;;;;;;;14.10;54.71;101335.97;4950683;28;20023;-73
2022/04/13 06:21:10;;;;;;;11.13;5.68;;;;;;;14.09;54.52;101331.66;4952862;28;20019;-74
2022/04/13 06:23:36;;;;;;;12.80;5.07;;;;;;;14.11;54.68;101345.53;4952625;28;20031;-73
2022/04/13 06:26:01;;;;;;;13.32;5.60;;;;;;;14.10;54.61;101342.06;4950674;28;20069;-74
2022/04/13 06:28:27;;;;;;;12.02;6.22;;;;;;;14.09;54.31;101348.09;4949173;28;20037;-74
2022/04/13 06:30:52;;;;;;;15.88;6.15;;;;;;;14.09;54.70;101344.63;4952142;28;20043;-73
2022/04/13 06:33:18;;;;;;;9.93;5.55;;;;;;;14.10;54.78;101341.16;4951500;28;20118;-73
2022/04/13 06:35:44;;;;;;;10.50;5.57;;;;;;;14.11;54.74;101342.94;4950438;28;20469;-73
2022/04/13 06:38:09;;;;;;;13.63;6.30;;;;;;;14.11;54.84;101345.53;4950114;28;20068;-74
2022/04/13 06:40:35;;;;;;;12.00;6.47;;;;;;;14.10;54.71;101342.06;4950817;28;20471;-74
2022/04/13 06:43:00;;;;;;;10.27;5.60;;;;;;;14.10;54.75;101349.84;4951022;28;20338;-73
2022/04/13 06:45:25;;;;;;;11.38;6.25;;;;;;;14.08;54.79;101348.91;4950759;28;20062;-73
2022/04/13 06:47:51;;;;;;;12.15;6.22;;;;;;;14.11;54.56;101353.28;4935514;28;20026;-74
2022/04/13 06:50:16;;;;;;;12.38;5.68;;;;;;;14.11;54.85;101354.19;4953292;28;20042;-74
2022/04/13 06:52:42;;;;;;;11.23;6.03;;;;;;;14.11;54.74;101369.75;4951078;28;20027;-74
2022/04/13 06:55:11;;;;;;;10.73;6.00;;;;;;;14.11;54.51;101368.84;4953553;28;20045;-74
2022/04/13 06:57:40;;;;;;;11.05;5.78;;;;;;;14.10;54.58;101378.34;4952488;28;20454;-74
2022/04/13 07:00:08;;;;;;;13.00;6.32;;;;;;;14.11;54.60;101385.28;4954874;28;20027;-74
2022/04/13 07:02:36;;;;;;;13.82;6.63;;;;;;;14.12;54.83;101394.78;4951107;28;20045;-74
2022/04/13 07:05:03;;;;;;;14.10;6.90;;;;;;;14.12;54.92;101399.97;4953577;28;20858;-74
2022/04/13 07:07:28;;;;;;;18.10;6.93;;;;;;;14.12;54.97;101396.53;4954829;28;20030;-74
2022/04/13 07:09:54;;;;;;;20.13;9.05;;;;;;;14.13;54.68;101403.47;4953694;28;20080;-73
2022/04/13 07:12:19;;;;;;;18.67;8.63;;;;;;;14.13;55.04;101403.47;4956517;28;20473;-74
2022/04/13 07:14:44;;;;;;;27.65;10.30;;;;;;;14.13;55.10;101404.34;4955477;28;20504;-74
2022/04/13 07:17:10;;;;;;;24.33;10.15;;;;;;;14.13;54.94;101404.34;4957398;28;20031;-74
2022/04/13 07:19:35;;;;;;;27.45;10.82;;;;;;;14.13;55.12;101406.94;4955520;28;20031;-74
2022/04/13 07:22:01;;;;;;;23.63;10.98;;;;;;;14.13;55.05;101414.69;4956349;28;20029;-74
2022/04/13 07:24:27;;;;;;;22.77;11.15;;;;;;;14.13;55.13;101413.84;4938896;28;20093;-73
2022/04/13 07:26:53;;;;;;;27.13;11.07;;;;;;;14.14;55.58;101437.19;4955436;28;20023;-74
2022/04/13 07:29:18;;;;;;;25.75;11.20;;;;;;;14.12;54.98;101428.50;4954901;28;20345;-74
2022/04/13 07:31:44;;;;;;;26.00;10.38;;;;;;;14.12;55.40;101425.91;4955112;28;20110;-74
2022/04/13 07:34:09;;;;;;;22.27;9.93;;;;;;;14.13;54.99;101430.25;4956330;28;20098;-74
2022/04/13 07:36:35;;;;;;;29.13;11.25;;;;;;;14.14;55.37;101426.84;4922525;28;20442;-74
2022/04/13 07:39:02;;;;;;;24.10;11.15;;;;;;;14.15;55.46;101438.06;4953922;28;20027;-74
2022/04/13 07:41:27;;;;;;;30.87;9.97;;;;;;;14.16;55.74;101439.81;4954144;28;20035;-74
2022/04/13 07:43:53;;;;;;;20.00;9.57;;;;;;;14.18;55.70;101437.25;4954288;28;20097;-74
2022/04/13 07:46:18;;;;;;;18.90;9.82;;;;;;;14.14;55.34;101439.78;4955192;28;20019;-74
2022/04/13 07:48:44;;;;;;;26.38;11.43;;;;;;;14.18;55.66;101435.56;4955568;28;20093;-74
2022/04/13 07:51:10;;;;;;;21.27;9.63;;;;;;;14.14;55.59;101426.84;4936105;28;20042;-74
2022/04/13 07:53:35;;;;;;;22.33;9.77;;;;;;;14.18;55.65;101439.84;4954255;28;20160;-74
2022/04/13 07:56:00;;;;;;;22.42;9.95;;;;;;;14.17;55.67;101441.59;4954782;28;20197;-74
2022/04/13 07:58:26;;;;;;;17.48;8.82;;;;;;;14.17;55.72;101441.59;4937924;28;20114;-74
2022/04/13 08:00:51;;;;;;;21.42;8.63;;;;;;;14.18;55.64;101443.34;4955312;28;20033;-73
2022/04/13 08:03:17;;;;;;;18.40;8.90;;;;;;;14.16;55.46;101451.09;4955151;28;20465;-72
2022/04/13 08:05:42;;;;;;;17.23;8.52;;;;;;;14.18;55.54;101447.63;4954123;28;20031;-74
2022/04/13 08:08:08;;;;;;;20.98;9.05;;;;;;;14.18;55.50;101447.63;4954497;28;20022;-72
2022/04/13 08:10:33;;;;;;;16.17;8.73;;;;;;;14.16;55.48;101456.28;4954651;28;20115;-76
2022/04/13 08:12:58;;;;;;;21.92;9.80;;;;;;;14.18;55.41;101458.91;4938221;28;20031;-73
2022/04/13 08:15:24;;;;;;;20.20;9.10;;;;;;;14.18;55.35;101463.19;4936180;28;20019;-74
2022/04/13 08:17:50;;;;;;;18.10;9.10;;;;;;;14.18;55.43;101458.00;4954059;28;20105;-74
2022/04/13 08:20:15;;;;;;;16.83;8.95;;;;;;;14.19;55.28;101459.75;4954782;28;20348;-74
2022/04/13 08:22:42;;;;;;;19.52;8.73;;;;;;;14.19;55.31;101464.94;4954886;28;20105;-74
2022/04/13 08:25:08;;;;;;;18.65;9.00;;;;;;;14.18;55.17;101463.19;4939317;28;20352;-73
2022/04/13 08:27:33;;;;;;;17.17;8.15;;;;;;;14.19;55.38;101464.94;4954561;28;20444;-72
2022/04/13 08:29:59;;;;;;;15.60;7.78;;;;;;;14.18;55.32;101469.25;4950203;28;20433;-73
2022/04/13 08:32:24;;;;;;;17.02;8.18;;;;;;;14.18;55.25;101474.44;4952718;28;20018;-73
2022/04/13 08:34:53;;;;;;;19.13;8.57;;;;;;;14.19;55.14;101473.63;4954496;28;20023;-73
2022/04/13 08:37:23;;;;;;;14.52;6.72;;;;;;;14.18;55.11;101479.63;4955333;28;20337;-72
2022/04/13 08:39:49;;;;;;;13.60;7.03;;;;;;;14.21;55.20;101478.84;4955661;28;20027;-73
2022/04/13 08:42:48;;;;;;;17.60;7.40;;;;;;;14.24;54.88;101476.31;4955702;28;20026;-74
2022/04/13 08:45:28;;;;;;;16.90;7.30;;;;;;;14.22;54.84;101476.28;4952371;28;20034;-74
2022/04/13 08:47:56;;;;;;;17.98;7.65;;;;;;;14.19;54.82;101475.31;4955204;28;20022;-72
2022/04/13 08:50:27;;;;;;;16.00;6.63;;;;;;;14.21;54.83;101486.59;4955138;28;20085;-74
2022/04/13 08:52:57;;;;;;;15.35;6.50;;;;;;;14.20;54.79;101482.25;4954554;28;20356;-72
2022/04/13 08:55:25;;;;;;;16.95;6.75;;;;;;;14.21;54.77;101490.06;4955288;28;20031;-74
2022/04/13 08:57:54;;;;;;;;;;;;;;;14.32;54.54;101487.75;4938568;28;20034;-74
2022/04/13 09:00:22;;;;;;;14.88;6.90;;;;;;;14.22;54.75;101490.97;4954398;28;19914;-73
2022/04/13 09:02:49;;;;;;;13.55;6.07;;;;;;;14.23;54.92;101492.69;4953762;28;20081;-74
2022/04/13 09:05:23;;;;;;;14.40;5.88;;;;;;;14.22;54.85;101490.97;4954766;28;20412;-72
2022/04/13 09:08:05;;;;;;;13.30;6.03;;;;;;;14.24;54.65;101495.34;4952977;28;20027;-73
2022/04/13 09:10:31;;;;;;;12.18;6.00;;;;;;;14.23;54.87;101495.28;4954050;28;20448;-73
2022/04/13 09:12:58;;;;;;;12.88;5.90;;;;;;;14.22;54.62;101502.19;4953352;28;20038;-73
2022/04/13 09:15:24;;;;;;;15.18;6.38;;;;;;;14.24;54.74;101503.13;4953029;28;20042;-72
2022/04/13 09:17:50;;;;;;;13.88;6.03;;;;;;;14.25;54.73;101501.41;4952378;28;20039;-74
2022/04/13 09:20:16;;;;;;;15.40;6.07;;;;;;;14.25;54.77;101498.81;4937776;28;20030;-72
2022/04/13 09:22:43;;;;;;;14.45;5.10;;;;;;;14.25;54.82;101506.59;4952563;28;20033;-73
2022/04/13 09:25:09;;;;;;;14.30;5.78;;;;;;;14.24;54.79;101510.91;4953678;28;20093;-73
2022/04/13 09:27:37;;;;;;;14.65;5.90;;;;;;;14.26;54.65;101514.41;4954287;28;20056;-73
2022/04/13 09:30:03;;;;;;;11.00;5.43;;;;;;;14.28;54.69;101524.78;4952783;28;20043;-73
2022/04/13 09:32:29;;;;;;;14.60;6.00;;;;;;;14.27;54.77;101520.47;4936588;28;20014;-74
2022/04/13 09:34:55;;;;;;;11.35;5.65;;;;;;;14.28;54.60;101532.56;4953896;28;20102;-74
2022/04/13 09:37:22;;;;;;;12.25;5.70;;;;;;;14.27;54.59;101523.06;4954326;28;20246;-74
2022/04/13 09:39:48;;;;;;;12.02;5.05;;;;;;;14.27;54.48;101526.53;4954170;28;20019;-74
2022/04/13 09:42:14;;;;;;;8.88;5.05;;;;;;;14.27;54.53;101536.03;4937645;28;20031;-74
2022/04/13 09:44:43;;;;;;;12.07;5.30;;;;;;;14.27;54.43;101536.91;4953967;28;20058;-72
2022/04/13 09:47:12;;;;;;;10.88;4.90;;;;;;;14.28;54.45;101537.75;4953688;28;20027;-74
2022/04/13 09:49:45;;;;;;;12.68;5.30;;;;;;;14.28;54.47;101538.66;4951162;28;20035;-74
2022/04/13 09:52:10;;;;;;;11.60;5.78;;;;;;;14.25;54.34;101541.16;4953944;28;20045;-73
2022/04/13 09:54:44;;;;;;;10.45;4.85;;;;;;;14.29;54.35;101544.72;4950790;28;20237;-74
2022/04/13 09:57:21;;;;;;;13.18;5.75;;;;;;;14.29;54.19;101544.72;4949771;28;20029;-73
2022/04/13 09:59:56;;;;;;;11.50;5.70;;;;;;;14.30;54.33;101546.47;4951105;28;20500;-74
2022/04/13 10:02:42;;;;;;;10.63;4.72;;;;;;;14.33;54.11;101546.53;4952295;28;20030;-74
2022/04/13 10:05:20;;;;;;;14.25;5.88;;;;;;;14.29;54.18;101540.41;4951202;28;20014;-73
2022/04/13 10:07:59;;;;;;;9.52;4.55;;;;;;;14.31;54.28;101548.22;4954830;28;20030;-74
2022/04/13 10:10:25;;;;;;;11.35;4.90;;;;;;;14.30;54.03;101546.47;4954140;28;20507;-73
2022/04/13 10:12:51;;;;;;;12.52;5.20;;;;;;;14.30;53.94;101541.28;4952092;28;20106;-74
2022/04/13 10:15:16;;;;;;;10.25;4.85;;;;;;;14.28;54.02;101549.03;4954727;28;24611;-74
2022/04/13 10:17:42;;;;;;;13.70;5.50;;;;;;;14.30;54.06;101549.06;4953259;28;20449;-73
2022/04/13 10:20:08;;;;;;;10.75;4.80;;;;;;;14.30;54.04;101542.16;4953596;28;20113;-73
2022/04/13 10:22:33;;;;;;;9.43;4.70;;;;;;;14.31;54.12;101545.63;4952486;28;20018;-73
2022/04/13 10:25:20;;;;;;;11.05;5.03;;;;;;;14.32;54.08;101544.81;4953861;28;20034;-75
2022/04/13 10:27:56;;;;;;;9.30;4.78;;;;;;;14.29;53.97;101540.41;4955028;28;20102;-73
2022/04/13 10:30:35;;;;;;;10.38;5.03;;;;;;;14.31;54.07;101553.41;4920119;28;20051;-73
2022/04/13 10:33:09;;;;;;;13.07;4.75;;;;;;;14.31;53.87;101553.41;4952325;28;20074;-73
2022/04/13 10:35:38;;;;;;;11.23;4.80;;;;;;;14.29;54.12;101555.06;4952751;28;20023;-72
2022/04/13 10:38:03;;;;;;;8.25;4.30;;;;;;;14.30;54.06;101554.25;4952714;28;20029;-74
2022/04/13 10:40:31;;;;;;;11.70;4.57;;;;;;;14.29;54.05;101557.66;4953349;28;20344;-74
2022/04/13 10:43:00;;;;;;;9.27;4.45;;;;;;;14.30;54.09;101556.84;4953329;28;20018;-74
2022/04/13 10:45:30;;;;;;;10.05;4.75;;;;;;;14.30;53.99;101562.88;4952805;28;20026;-73
2022/04/13 10:48:02;;;;;;;9.38;4.63;;;;;;;14.32;54.10;101570.72;4952214;28;20022;-73
2022/04/13 10:50:50;;;;;;;8.40;4.45;;;;;;;14.31;54.21;101572.44;4935953;28;20022;-73
2022/04/13 10:53:29;;;;;;;9.45;4.40;;;;;;;14.31;54.03;101572.44;4952068;28;20019;-73
2022/04/13 10:55:59;;;;;;;10.18;4.35;;;;;;;14.31;54.02;101566.38;4952275;28;20062;-73
2022/04/13 10:59:02;;;;;;;10.77;4.60;;;;;;;14.36;53.87;101571.66;4950153;28;20030;-72
2022/04/13 11:01:31;;;;;;;10.25;4.35;;;;;;;14.32;53.94;101581.09;4952611;28;20014;-73
2022/04/13 11:03:57;;;;;;;11.07;5.28;;;;;;;14.32;53.94;101581.09;4950428;28;20018;-73
2022/04/13 11:06:24;;;;;;;9.70;4.22;;;;;;;14.32;53.95;101587.16;4952718;28;20038;-72
2022/04/13 11:09:07;;;;;;;8.17;4.00;;;;;;;14.36;53.98;101588.13;4951923;28;20464;-73
2022/04/13 11:11:35;;;;;;;9.80;4.47;;;;;;;14.32;54.00;101594.06;4952131;28;20424;-74
2022/04/13 11:14:15;;;;;;;11.20;4.65;;;;;;;14.33;54.00;101588.03;4952188;28;20023;-74
2022/04/13 11:16:40;;;;;;;9.25;5.00;;;;;;;14.33;53.98;101588.03;4951973;28;20407;-74
2022/04/13 11:19:05;;;;;;;9.20;4.82;;;;;;;14.33;53.94;101588.03;4952505;28;20728;-74
2022/04/13 11:21:32;;;;;;;9.43;4.50;;;;;;;14.32;53.78;101591.47;4950606;28;20019;-73
2022/04/13 11:23:58;;;;;;;9.75;5.05;;;;;;;14.32;53.93;101588.88;4949878;28;20093;-73